createdAt,value
2022-08-30T00:00:05.462Z,14.40
2022-08-30T00:05:08.570Z,15.32
2022-08-30T00:10:11.385Z,15.52
2022-08-30T00:15:14.268Z,15.27
2022-08-30T00:20:21.868Z,15.57
2022-08-30T00:25:25.013Z,16.33
2022-08-30T00:30:27.341Z,15.85
2022-08-30T00:35:29.586Z,16.50
2022-08-30T00:40:31.714Z,16.58
2022-08-30T00:45:36.861Z,17.33
2022-08-30T00:50:50.445Z,16.80
2022-08-30T00:55:55.127Z,17.88
2022-08-30T01:01:00.983Z,16.67
2022-08-30T01:06:04.799Z,17.75
2022-08-30T01:11:08.120Z,17.85
2022-08-30T01:16:11.084Z,17.50
2022-08-30T01:21:34.447Z,16.45
2022-08-30T01:26:37.696Z,16.48
2022-08-30T01:31:40.156Z,17.25
2022-08-30T01:36:45.236Z,15.98
2022-08-30T01:41:47.525Z,17.45
2022-08-30T01:46:49.789Z,18.10
2022-08-30T01:52:00.924Z,18.80
2022-08-30T01:57:04.387Z,17.27
2022-08-30T02:02:07.238Z,16.17
2022-08-30T02:07:10.105Z,15.82
2022-08-30T02:12:12.384Z,16.50
2022-08-30T02:17:16.197Z,16.05
2022-08-30T02:22:18.433Z,15.88
2022-08-30T02:27:20.611Z,16.65
2022-08-30T02:32:22.829Z,16.98
2022-08-30T02:37:25.237Z,15.65
2022-08-30T02:42:27.334Z,16.45
2022-08-30T02:47:29.398Z,15.77
2022-08-30T02:52:31.845Z,17.42
2022-08-30T02:57:34.277Z,17.02
2022-08-30T03:02:36.378Z,17.70
2022-08-30T03:07:38.748Z,16.80
2022-08-30T03:12:42.130Z,18.10
2022-08-30T03:17:44.456Z,17.90
2022-08-30T03:22:46.680Z,16.85
2022-08-30T03:27:50.847Z,17.45
2022-08-30T03:32:53.251Z,16.60
2022-08-30T03:37:56.266Z,17.42
2022-08-30T03:42:58.707Z,18.02
2022-08-30T03:48:03.174Z,17.42
2022-08-30T03:53:05.524Z,16.77
2022-08-30T03:58:07.719Z,16.52
2022-08-30T04:03:09.993Z,15.80
2022-08-30T04:08:12.181Z,17.55
2022-08-30T04:13:18.654Z,17.83
2022-08-30T04:18:21.252Z,17.30
2022-08-30T04:23:23.377Z,17.40
2022-08-30T04:28:25.862Z,19.25
2022-08-30T04:33:28.608Z,16.42
2022-08-30T04:38:31.349Z,17.52
2022-08-30T04:43:34.381Z,15.73
2022-08-30T04:48:38.069Z,17.33
2022-08-30T04:53:42.482Z,16.73
2022-08-30T04:58:47.006Z,15.70
2022-08-30T05:03:50.470Z,15.70
2022-08-30T05:08:54.333Z,13.45
2022-08-30T05:13:56.447Z,14.15
2022-08-30T05:18:58.552Z,13.57
2022-08-30T05:24:01.477Z,14.27
2022-08-30T05:29:03.865Z,13.07
2022-08-30T05:34:06.248Z,12.40
2022-08-30T05:39:10.126Z,12.38
2022-08-30T05:44:12.656Z,9.82
2022-08-30T05:49:15.238Z,9.13
2022-08-30T05:54:17.399Z,8.55
2022-08-30T05:59:19.876Z,8.18
2022-08-30T06:04:22.084Z,8.23
2022-08-30T06:09:24.791Z,8.77
2022-08-30T06:14:27.102Z,7.93
2022-08-30T06:19:29.416Z,7.78
2022-08-30T06:24:55.989Z,7.28
2022-08-30T06:29:54.419Z,6.78
2022-08-30T06:34:56.627Z,6.60
2022-08-30T06:40:00.226Z,6.50
2022-08-30T06:45:11.039Z,7.10
2022-08-30T06:50:17.379Z,6.82
2022-08-30T06:55:20.137Z,5.80
2022-08-30T07:00:22.409Z,5.82
2022-08-30T07:05:24.718Z,5.97
2022-08-30T07:10:27.155Z,6.20
2022-08-30T07:15:29.389Z,6.40
2022-08-30T07:20:40.260Z,5.88
2022-08-30T07:25:43.176Z,6.13
2022-08-30T07:30:45.300Z,6.13
2022-08-30T07:35:47.410Z,6.03
2022-08-30T07:40:49.652Z,6.18
2022-08-30T07:45:51.925Z,6.10
2022-08-30T07:50:57.681Z,5.90
2022-08-30T07:56:02.139Z,5.95
2022-08-30T08:01:09.771Z,7.00
2022-08-30T08:06:14.985Z,6.53
2022-08-30T08:11:23.675Z,6.97
2022-08-30T08:16:29.264Z,6.47
2022-08-30T08:21:31.882Z,6.40
2022-08-30T08:26:36.494Z,6.70
2022-08-30T08:31:38.979Z,6.40
2022-08-30T08:36:41.604Z,6.28
2022-08-30T08:42:16.677Z,6.95
2022-08-30T08:47:35.709Z,6.47
2022-08-30T08:53:20.445Z,6.28
2022-08-30T08:58:35.152Z,5.95
2022-08-30T09:03:37.868Z,6.38
2022-08-30T09:08:40.134Z,6.25
2022-08-30T09:13:42.976Z,6.55
2022-08-30T09:18:51.358Z,6.57
2022-08-30T09:24:04.824Z,6.53
2022-08-30T09:29:17.695Z,6.47
2022-08-30T09:34:22.551Z,7.53
2022-08-30T09:39:37.596Z,6.78
2022-08-30T09:44:40.465Z,6.18
2022-08-30T09:49:44.961Z,5.72
2022-08-30T09:55:15.003Z,6.95
2022-08-30T10:00:23.598Z,5.43
2022-08-30T10:06:11.788Z,6.35
2022-08-30T10:11:21.359Z,6.03
2022-08-30T10:16:44.779Z,5.70
2022-08-30T10:21:47.016Z,6.25
2022-08-30T10:26:58.314Z,6.20
2022-08-30T10:32:13.105Z,6.53
2022-08-30T10:37:19.903Z,6.05
2022-08-30T10:42:37.960Z,6.00
2022-08-30T10:47:54.067Z,5.57
2022-08-30T10:53:02.547Z,6.43
2022-08-30T10:58:06.764Z,5.65
2022-08-30T11:03:46.820Z,6.65
2022-08-30T11:09:18.581Z,6.30
2022-08-30T11:14:25.572Z,6.40
2022-08-30T11:19:40.755Z,6.85
2022-08-30T11:25:01.910Z,6.20
2022-08-30T11:30:26.669Z,7.00
2022-08-30T11:35:55.868Z,7.18
2022-08-30T11:40:59.145Z,7.87
2022-08-30T11:46:15.550Z,7.65
2022-08-30T11:51:50.831Z,6.47
2022-08-30T11:57:17.729Z,6.22
2022-08-30T12:02:45.156Z,7.47
2022-08-30T12:08:01.096Z,7.28
2022-08-30T12:13:04.085Z,7.45
2022-08-30T12:18:28.414Z,6.88
2022-08-30T12:23:44.752Z,7.53
2022-08-30T12:28:49.760Z,6.90
2022-08-30T12:34:00.788Z,6.80
2022-08-30T12:39:30.992Z,6.70
2022-08-30T12:44:34.278Z,7.20
2022-08-30T12:49:38.233Z,7.82
2022-08-30T12:54:41.145Z,6.40
2022-08-30T12:59:58.482Z,6.38
2022-08-30T13:05:42.935Z,8.30
2022-08-30T13:11:08.098Z,6.57
2022-08-30T13:16:21.868Z,7.38
2022-08-30T13:21:26.662Z,7.20
2022-08-30T13:26:32.985Z,6.82
2022-08-30T13:31:37.217Z,7.45
2022-08-30T13:36:48.452Z,7.38
2022-08-30T13:41:51.708Z,6.72
2022-08-30T13:47:32.077Z,6.80
2022-08-30T13:52:25.841Z,7.38
2022-08-30T14:02:57.647Z,7.90
2022-08-30T14:08:03.231Z,8.87
2022-08-30T14:13:09.046Z,8.00
2022-08-30T14:18:15.847Z,8.50
2022-08-30T14:23:20.849Z,9.60
2022-08-30T14:28:23.739Z,9.07
2022-08-30T14:33:26.428Z,9.00
2022-08-30T14:38:28.689Z,8.50
2022-08-30T14:43:32.013Z,8.70
2022-08-30T14:48:34.345Z,8.73
2022-08-30T14:53:36.956Z,8.27
2022-08-30T14:58:39.126Z,8.98
2022-08-30T15:03:42.874Z,8.93
2022-08-30T15:08:47.765Z,8.38
2022-08-30T15:13:52.975Z,8.80
2022-08-30T15:18:58.310Z,8.90
2022-08-30T15:24:02.528Z,9.23
2022-08-30T15:29:04.888Z,9.77
2022-08-30T15:34:12.845Z,9.32
2022-08-30T15:39:16.163Z,9.50
2022-08-30T15:44:18.444Z,8.75
2022-08-30T15:49:23.385Z,10.00
2022-08-30T15:54:26.003Z,9.60
2022-08-30T15:59:30.353Z,9.13
2022-08-30T16:04:32.684Z,9.75
2022-08-30T16:09:36.859Z,10.70
2022-08-30T16:14:40.617Z,10.52
2022-08-30T16:19:43.734Z,11.40
2022-08-30T16:24:46.621Z,12.50
2022-08-30T16:29:50.173Z,11.75
2022-08-30T16:34:52.612Z,10.88
2022-08-30T16:39:55.190Z,12.35
2022-08-30T16:44:57.711Z,12.18
2022-08-30T16:50:00.835Z,12.48
2022-08-30T16:55:03.714Z,12.77
2022-08-30T17:00:12.996Z,13.57
2022-08-30T17:05:15.854Z,13.43
2022-08-30T17:10:23.098Z,12.85
2022-08-30T17:15:27.339Z,13.85
2022-08-30T17:20:34.139Z,14.23
2022-08-30T17:25:37.738Z,13.48
2022-08-30T17:30:40.311Z,13.98
2022-08-30T17:35:42.652Z,12.95
2022-08-30T17:40:47.061Z,13.77
2022-08-30T17:45:49.471Z,14.73
2022-08-30T17:50:58.133Z,14.48
2022-08-30T17:56:00.649Z,13.32
2022-08-30T18:01:11.587Z,13.52
2022-08-30T18:06:14.943Z,13.90
2022-08-30T18:11:19.127Z,12.85
2022-08-30T18:16:21.725Z,13.55
2022-08-30T18:21:28.863Z,14.15
2022-08-30T18:26:32.257Z,15.00
2022-08-30T18:31:34.521Z,15.20
2022-08-30T18:36:36.745Z,14.82
2022-08-30T18:41:42.953Z,14.15
2022-08-30T18:46:55.831Z,13.73
2022-08-30T18:51:59.409Z,14.60
2022-08-30T18:57:01.794Z,19.48
2022-08-30T19:02:05.942Z,15.80
2022-08-30T19:07:10.172Z,48.65
2022-08-30T19:12:14.826Z,29.25
2022-08-30T19:17:19.219Z,30.92
2022-08-30T19:22:27.445Z,25.90
2022-08-30T19:27:37.236Z,23.02
2022-08-30T19:32:40.531Z,15.25
2022-08-30T19:37:43.826Z,14.70
2022-08-30T19:42:47.040Z,13.07
2022-08-30T19:47:50.135Z,14.50
2022-08-30T19:52:54.678Z,12.85
2022-08-30T19:57:58.021Z,17.48
2022-08-30T20:03:01.625Z,13.70
2022-08-30T20:08:04.384Z,14.63
2022-08-30T20:13:06.690Z,16.08
2022-08-30T20:18:13.387Z,13.80
2022-08-30T20:23:19.699Z,14.55
2022-08-30T20:28:26.085Z,15.00
2022-08-30T20:33:28.278Z,14.43
2022-08-30T20:38:31.022Z,13.20
2022-08-30T20:43:33.282Z,13.20
2022-08-30T20:48:35.769Z,13.10
2022-08-30T20:53:38.748Z,12.82
2022-08-30T20:58:41.317Z,14.00
2022-08-30T21:03:45.038Z,14.73
2022-08-30T21:08:50.570Z,14.25
2022-08-30T21:13:52.728Z,13.73
2022-08-30T21:18:54.832Z,14.30
2022-08-30T21:24:00.306Z,15.05
2022-08-30T21:29:02.776Z,13.43
2022-08-30T21:34:05.979Z,12.10
2022-08-30T21:39:09.581Z,12.52
2022-08-30T21:44:18.793Z,12.55
2022-08-30T21:49:23.904Z,12.80
2022-08-30T21:54:28.320Z,11.55
2022-08-30T21:59:34.186Z,13.35
2022-08-30T22:04:36.332Z,11.27
2022-08-30T22:09:38.707Z,11.20
2022-08-30T22:14:41.395Z,11.73
2022-08-30T22:19:43.546Z,12.70
2022-08-30T22:24:45.824Z,13.45
2022-08-30T22:29:48.030Z,13.20
2022-08-30T22:34:51.301Z,14.10
2022-08-30T22:39:53.527Z,14.38
2022-08-30T22:44:55.662Z,14.85
2022-08-30T22:49:57.958Z,16.15
2022-08-30T22:55:01.138Z,14.35
2022-08-30T23:00:08.869Z,14.90
2022-08-30T23:05:13.169Z,15.50
2022-08-30T23:10:15.567Z,15.25
2022-08-30T23:15:17.999Z,15.63
2022-08-30T23:20:20.808Z,16.58
2022-08-30T23:25:44.474Z,13.90
2022-08-30T23:31:05.241Z,15.32
2022-08-30T23:36:31.746Z,15.10
2022-08-30T23:41:52.486Z,13.60
2022-08-30T23:47:13.238Z,14.98
2022-08-30T23:52:34.029Z,15.88
2022-08-30T23:57:54.712Z,16.30
